sensor_id;sensor_type;location;lat;lon;timestamp;temperature;humidity
21495;DHT22;10909;53.590;10.054;2023-06-26T00:00:53;26.60;51.20
21495;DHT22;10909;53.590;10.054;2023-06-26T00:03:19;26.60;51.40
21495;DHT22;10909;53.590;10.054;2023-06-26T00:05:45;26.60;51.40
21495;DHT22;10909;53.590;10.054;2023-06-26T00:08:11;26.50;51.40
21495;DHT22;10909;53.590;10.054;2023-06-26T00:10:37;26.50;51.50
21495;DHT22;10909;53.590;10.054;2023-06-26T00:13:06;26.40;51.60
21495;DHT22;10909;53.590;10.054;2023-06-26T00:15:31;26.40;51.70
21495;DHT22;10909;53.590;10.054;2023-06-26T00:17:58;26.40;51.70
21495;DHT22;10909;53.590;10.054;2023-06-26T00:20:24;26.40;51.80
21495;DHT22;10909;53.590;10.054;2023-06-26T00:22:50;26.40;51.80
21495;DHT22;10909;53.590;10.054;2023-06-26T00:25:16;26.40;51.90
21495;DHT22;10909;53.590;10.054;2023-06-26T00:27:42;26.30;52.00
21495;DHT22;10909;53.590;10.054;2023-06-26T00:30:08;26.30;52.00
21495;DHT22;10909;53.590;10.054;2023-06-26T00:32:34;26.30;52.10
21495;DHT22;10909;53.590;10.054;2023-06-26T00:35:00;26.30;52.10
21495;DHT22;10909;53.590;10.054;2023-06-26T00:37:27;26.30;52.20
21495;DHT22;10909;53.590;10.054;2023-06-26T00:39:53;26.20;52.20
21495;DHT22;10909;53.590;10.054;2023-06-26T00:42:19;26.20;52.30
21495;DHT22;10909;53.590;10.054;2023-06-26T00:44:44;26.20;52.30
21495;DHT22;10909;53.590;10.054;2023-06-26T00:47:14;26.20;52.40
21495;DHT22;10909;53.590;10.054;2023-06-26T00:49:40;26.10;52.50
21495;DHT22;10909;53.590;10.054;2023-06-26T00:52:06;26.10;52.40
21495;DHT22;10909;53.590;10.054;2023-06-26T00:54:32;26.10;52.50
21495;DHT22;10909;53.590;10.054;2023-06-26T00:56:57;26.10;52.50
21495;DHT22;10909;53.590;10.054;2023-06-26T00:59:23;26.00;52.50
21495;DHT22;10909;53.590;10.054;2023-06-26T01:01:49;26.00;52.60
21495;DHT22;10909;53.590;10.054;2023-06-26T01:04:15;26.00;52.60
21495;DHT22;10909;53.590;10.054;2023-06-26T01:06:46;25.90;52.70
21495;DHT22;10909;53.590;10.054;2023-06-26T01:09:21;25.90;52.90
21495;DHT22;10909;53.590;10.054;2023-06-26T01:11:47;25.90;52.90
21495;DHT22;10909;53.590;10.054;2023-06-26T01:14:13;25.90;52.90
21495;DHT22;10909;53.590;10.054;2023-06-26T01:16:40;25.80;52.90
21495;DHT22;10909;53.590;10.054;2023-06-26T01:19:13;25.80;53.00
21495;DHT22;10909;53.590;10.054;2023-06-26T01:21:43;25.80;53.20
21495;DHT22;10909;53.590;10.054;2023-06-26T01:24:17;25.80;53.20
21495;DHT22;10909;53.590;10.054;2023-06-26T01:26:49;25.70;53.40
21495;DHT22;10909;53.590;10.054;2023-06-26T01:29:16;25.70;53.30
21495;DHT22;10909;53.590;10.054;2023-06-26T01:31:44;25.70;53.30
21495;DHT22;10909;53.590;10.054;2023-06-26T01:34:12;25.60;53.20
21495;DHT22;10909;53.590;10.054;2023-06-26T01:36:38;25.70;53.30
21495;DHT22;10909;53.590;10.054;2023-06-26T01:39:04;25.60;53.40
21495;DHT22;10909;53.590;10.054;2023-06-26T01:41:30;25.60;53.50
21495;DHT22;10909;53.590;10.054;2023-06-26T01:52:07;25.50;54.00
21495;DHT22;10909;53.590;10.054;2023-06-26T01:54:39;25.50;53.90
21495;DHT22;10909;53.590;10.054;2023-06-26T01:57:09;25.50;53.70
21495;DHT22;10909;53.590;10.054;2023-06-26T01:59:36;25.40;53.70
21495;DHT22;10909;53.590;10.054;2023-06-26T02:02:07;25.30;53.70
21495;DHT22;10909;53.590;10.054;2023-06-26T02:04:32;25.30;54.00
21495;DHT22;10909;53.590;10.054;2023-06-26T02:06:58;25.30;53.90
21495;DHT22;10909;53.590;10.054;2023-06-26T02:09:24;25.20;53.90
21495;DHT22;10909;53.590;10.054;2023-06-26T02:11:49;25.20;54.10
21495;DHT22;10909;53.590;10.054;2023-06-26T02:14:15;25.10;54.10
21495;DHT22;10909;53.590;10.054;2023-06-26T02:16:40;25.10;54.80
21495;DHT22;10909;53.590;10.054;2023-06-26T02:19:06;25.10;54.30
21495;DHT22;10909;53.590;10.054;2023-06-26T02:21:32;25.10;54.40
21495;DHT22;10909;53.590;10.054;2023-06-26T02:23:57;25.10;54.40
21495;DHT22;10909;53.590;10.054;2023-06-26T02:26:23;25.10;54.40
21495;DHT22;10909;53.590;10.054;2023-06-26T02:28:48;25.10;54.50
21495;DHT22;10909;53.590;10.054;2023-06-26T02:31:15;25.00;54.50
21495;DHT22;10909;53.590;10.054;2023-06-26T02:33:41;25.00;54.50
21495;DHT22;10909;53.590;10.054;2023-06-26T02:36:08;25.00;54.60
21495;DHT22;10909;53.590;10.054;2023-06-26T02:38:33;25.00;54.60
21495;DHT22;10909;53.590;10.054;2023-06-26T02:40:59;25.00;54.70
21495;DHT22;10909;53.590;10.054;2023-06-26T02:43:25;25.00;54.80
21495;DHT22;10909;53.590;10.054;2023-06-26T02:45:50;25.00;54.80
21495;DHT22;10909;53.590;10.054;2023-06-26T02:48:16;24.90;54.80
21495;DHT22;10909;53.590;10.054;2023-06-26T02:50:42;24.90;54.80
21495;DHT22;10909;53.590;10.054;2023-06-26T02:53:11;24.90;54.90
21495;DHT22;10909;53.590;10.054;2023-06-26T02:55:37;24.90;54.90
21495;DHT22;10909;53.590;10.054;2023-06-26T02:58:02;24.90;54.90
21495;DHT22;10909;53.590;10.054;2023-06-26T03:00:28;24.90;54.90
21495;DHT22;10909;53.590;10.054;2023-06-26T03:02:55;24.80;55.50
21495;DHT22;10909;53.590;10.054;2023-06-26T03:05:21;24.80;54.90
21495;DHT22;10909;53.590;10.054;2023-06-26T03:07:49;24.80;54.90
21495;DHT22;10909;53.590;10.054;2023-06-26T03:10:16;24.80;55.00
21495;DHT22;10909;53.590;10.054;2023-06-26T03:12:42;24.80;55.00
21495;DHT22;10909;53.590;10.054;2023-06-26T03:15:08;24.80;55.10
21495;DHT22;10909;53.590;10.054;2023-06-26T03:17:34;24.80;55.10
21495;DHT22;10909;53.590;10.054;2023-06-26T03:19:59;24.70;55.10
21495;DHT22;10909;53.590;10.054;2023-06-26T03:22:25;24.70;55.20
21495;DHT22;10909;53.590;10.054;2023-06-26T03:24:51;24.70;55.10
21495;DHT22;10909;53.590;10.054;2023-06-26T03:27:16;24.70;55.20
21495;DHT22;10909;53.590;10.054;2023-06-26T03:29:42;24.70;55.30
21495;DHT22;10909;53.590;10.054;2023-06-26T03:32:08;24.70;55.30
21495;DHT22;10909;53.590;10.054;2023-06-26T03:34:34;24.70;55.40
21495;DHT22;10909;53.590;10.054;2023-06-26T03:37:00;24.70;55.40
21495;DHT22;10909;53.590;10.054;2023-06-26T03:39:27;24.70;55.40
21495;DHT22;10909;53.590;10.054;2023-06-26T03:41:53;24.70;55.40
21495;DHT22;10909;53.590;10.054;2023-06-26T03:44:22;24.70;56.10
21495;DHT22;10909;53.590;10.054;2023-06-26T03:46:47;24.70;55.40
21495;DHT22;10909;53.590;10.054;2023-06-26T03:49:13;24.70;55.50
21495;DHT22;10909;53.590;10.054;2023-06-26T03:51:39;24.70;55.50
21495;DHT22;10909;53.590;10.054;2023-06-26T03:54:05;24.70;55.50
21495;DHT22;10909;53.590;10.054;2023-06-26T03:56:30;24.70;55.50
21495;DHT22;10909;53.590;10.054;2023-06-26T03:58:56;24.70;55.50
21495;DHT22;10909;53.590;10.054;2023-06-26T04:01:22;24.70;55.40
21495;DHT22;10909;53.590;10.054;2023-06-26T04:03:48;24.70;55.50
21495;DHT22;10909;53.590;10.054;2023-06-26T04:06:13;24.70;55.50
21495;DHT22;10909;53.590;10.054;2023-06-26T04:08:39;24.70;55.50
21495;DHT22;10909;53.590;10.054;2023-06-26T04:11:04;24.70;55.50
21495;DHT22;10909;53.590;10.054;2023-06-26T04:13:30;24.70;55.60
21495;DHT22;10909;53.590;10.054;2023-06-26T04:15:56;24.70;55.70
21495;DHT22;10909;53.590;10.054;2023-06-26T04:18:21;24.80;55.70
21495;DHT22;10909;53.590;10.054;2023-06-26T04:21:06;24.80;55.70
21495;DHT22;10909;53.590;10.054;2023-06-26T04:23:33;24.90;56.70
21495;DHT22;10909;53.590;10.054;2023-06-26T04:25:59;24.90;55.60
21495;DHT22;10909;53.590;10.054;2023-06-26T04:28:25;24.90;56.20
21495;DHT22;10909;53.590;10.054;2023-06-26T04:30:50;24.90;55.60
21495;DHT22;10909;53.590;10.054;2023-06-26T04:33:16;24.90;55.60
21495;DHT22;10909;53.590;10.054;2023-06-26T04:35:42;25.00;55.60
21495;DHT22;10909;53.590;10.054;2023-06-26T04:38:11;25.00;55.60
21495;DHT22;10909;53.590;10.054;2023-06-26T04:40:37;25.00;55.60
21495;DHT22;10909;53.590;10.054;2023-06-26T04:43:03;25.00;55.60
21495;DHT22;10909;53.590;10.054;2023-06-26T04:45:28;25.10;55.60
21495;DHT22;10909;53.590;10.054;2023-06-26T04:47:54;25.10;55.60
21495;DHT22;10909;53.590;10.054;2023-06-26T04:50:19;25.10;55.60
21495;DHT22;10909;53.590;10.054;2023-06-26T04:52:45;25.10;55.60
21495;DHT22;10909;53.590;10.054;2023-06-26T04:55:11;25.20;55.60
21495;DHT22;10909;53.590;10.054;2023-06-26T04:57:36;25.20;55.60
21495;DHT22;10909;53.590;10.054;2023-06-26T05:00:02;25.30;55.70
21495;DHT22;10909;53.590;10.054;2023-06-26T05:02:31;25.40;55.80
21495;DHT22;10909;53.590;10.054;2023-06-26T05:04:57;25.40;55.70
21495;DHT22;10909;53.590;10.054;2023-06-26T05:07:22;25.50;55.60
21495;DHT22;10909;53.590;10.054;2023-06-26T05:09:48;25.50;55.60
21495;DHT22;10909;53.590;10.054;2023-06-26T05:12:14;25.60;55.60
21495;DHT22;10909;53.590;10.054;2023-06-26T05:14:39;25.60;55.40
21495;DHT22;10909;53.590;10.054;2023-06-26T05:17:08;25.70;55.40
21495;DHT22;10909;53.590;10.054;2023-06-26T05:19:33;25.70;55.40
21495;DHT22;10909;53.590;10.054;2023-06-26T05:22:01;25.80;55.20
21495;DHT22;10909;53.590;10.054;2023-06-26T05:24:36;25.80;55.20
21495;DHT22;10909;53.590;10.054;2023-06-26T05:27:03;25.80;55.20
21495;DHT22;10909;53.590;10.054;2023-06-26T05:29:31;25.80;55.10
21495;DHT22;10909;53.590;10.054;2023-06-26T05:31:57;25.90;55.20
21495;DHT22;10909;53.590;10.054;2023-06-26T05:34:23;25.90;55.10
21495;DHT22;10909;53.590;10.054;2023-06-26T05:36:57;25.90;55.10
21495;DHT22;10909;53.590;10.054;2023-06-26T05:39:26;26.00;55.20
21495;DHT22;10909;53.590;10.054;2023-06-26T05:41:54;26.00;55.00
21495;DHT22;10909;53.590;10.054;2023-06-26T05:44:26;26.10;55.00
21495;DHT22;10909;53.590;10.054;2023-06-26T05:46:53;26.10;55.20
21495;DHT22;10909;53.590;10.054;2023-06-26T05:49:21;26.10;54.80
21495;DHT22;10909;53.590;10.054;2023-06-26T05:51:48;26.10;54.70
21495;DHT22;10909;53.590;10.054;2023-06-26T05:54:14;26.10;54.70
21495;DHT22;10909;53.590;10.054;2023-06-26T05:56:40;26.20;54.80
21495;DHT22;10909;53.590;10.054;2023-06-26T05:59:08;26.20;54.80
21495;DHT22;10909;53.590;10.054;2023-06-26T06:01:35;26.30;54.80
21495;DHT22;10909;53.590;10.054;2023-06-26T06:04:04;26.30;54.70
21495;DHT22;10909;53.590;10.054;2023-06-26T06:06:30;26.40;54.70
21495;DHT22;10909;53.590;10.054;2023-06-26T06:08:55;26.40;54.60
21495;DHT22;10909;53.590;10.054;2023-06-26T06:11:21;26.50;54.60
21495;DHT22;10909;53.590;10.054;2023-06-26T06:13:48;26.50;54.50
21495;DHT22;10909;53.590;10.054;2023-06-26T06:16:13;26.60;54.50
21495;DHT22;10909;53.590;10.054;2023-06-26T06:18:39;26.70;54.50
21495;DHT22;10909;53.590;10.054;2023-06-26T06:21:05;26.70;54.40
21495;DHT22;10909;53.590;10.054;2023-06-26T06:23:30;26.80;54.40
21495;DHT22;10909;53.590;10.054;2023-06-26T06:25:56;26.80;54.90
21495;DHT22;10909;53.590;10.054;2023-06-26T06:28:21;26.90;54.20
21495;DHT22;10909;53.590;10.054;2023-06-26T06:30:47;26.90;54.20
21495;DHT22;10909;53.590;10.054;2023-06-26T06:33:16;26.90;54.10
21495;DHT22;10909;53.590;10.054;2023-06-26T06:35:41;27.00;54.20
21495;DHT22;10909;53.590;10.054;2023-06-26T06:38:07;27.00;54.10
21495;DHT22;10909;53.590;10.054;2023-06-26T06:40:33;27.10;54.10
21495;DHT22;10909;53.590;10.054;2023-06-26T06:42:58;27.20;54.00
21495;DHT22;10909;53.590;10.054;2023-06-26T06:45:24;27.20;53.80
21495;DHT22;10909;53.590;10.054;2023-06-26T06:47:50;27.30;53.80
21495;DHT22;10909;53.590;10.054;2023-06-26T06:50:15;27.30;53.70
21495;DHT22;10909;53.590;10.054;2023-06-26T06:52:43;27.30;53.70
21495;DHT22;10909;53.590;10.054;2023-06-26T06:55:09;27.40;53.70
21495;DHT22;10909;53.590;10.054;2023-06-26T06:57:39;27.40;53.70
21495;DHT22;10909;53.590;10.054;2023-06-26T07:00:10;27.50;53.70
21495;DHT22;10909;53.590;10.054;2023-06-26T07:02:37;27.60;53.60
21495;DHT22;10909;53.590;10.054;2023-06-26T07:05:07;27.70;53.70
21495;DHT22;10909;53.590;10.054;2023-06-26T07:07:34;27.70;53.60
21495;DHT22;10909;53.590;10.054;2023-06-26T07:10:07;27.80;53.60
21495;DHT22;10909;53.590;10.054;2023-06-26T07:12:34;27.80;54.10
21495;DHT22;10909;53.590;10.054;2023-06-26T07:15:06;27.90;53.40
21495;DHT22;10909;53.590;10.054;2023-06-26T07:17:34;28.00;53.40
21495;DHT22;10909;53.590;10.054;2023-06-26T07:20:00;28.10;53.30
21495;DHT22;10909;53.590;10.054;2023-06-26T07:22:34;28.10;53.20
21495;DHT22;10909;53.590;10.054;2023-06-26T07:25:00;28.10;52.90
21495;DHT22;10909;53.590;10.054;2023-06-26T07:27:29;28.20;52.80
21495;DHT22;10909;53.590;10.054;2023-06-26T07:29:55;28.20;52.80
21495;DHT22;10909;53.590;10.054;2023-06-26T07:32:23;28.30;52.90
21495;DHT22;10909;53.590;10.054;2023-06-26T07:34:53;28.30;52.90
21495;DHT22;10909;53.590;10.054;2023-06-26T07:37:21;28.40;52.60
21495;DHT22;10909;53.590;10.054;2023-06-26T07:39:50;28.40;52.60
21495;DHT22;10909;53.590;10.054;2023-06-26T07:42:21;28.40;52.60
21495;DHT22;10909;53.590;10.054;2023-06-26T07:44:47;28.50;52.60
21495;DHT22;10909;53.590;10.054;2023-06-26T07:47:12;28.50;52.50
21495;DHT22;10909;53.590;10.054;2023-06-26T07:49:39;28.70;52.50
21495;DHT22;10909;53.590;10.054;2023-06-26T07:52:07;28.70;52.30
21495;DHT22;10909;53.590;10.054;2023-06-26T07:54:35;28.80;52.10
21495;DHT22;10909;53.590;10.054;2023-06-26T07:57:03;28.90;52.00
21495;DHT22;10909;53.590;10.054;2023-06-26T07:59:32;29.00;51.90
21495;DHT22;10909;53.590;10.054;2023-06-26T08:01:58;29.10;52.00
21495;DHT22;10909;53.590;10.054;2023-06-26T08:04:26;29.20;51.70
21495;DHT22;10909;53.590;10.054;2023-06-26T08:06:54;29.20;51.30
21495;DHT22;10909;53.590;10.054;2023-06-26T08:09:21;29.30;51.40
21495;DHT22;10909;53.590;10.054;2023-06-26T08:11:47;29.40;51.30
21495;DHT22;10909;53.590;10.054;2023-06-26T08:14:15;29.40;51.20
21495;DHT22;10909;53.590;10.054;2023-06-26T08:16:43;29.50;51.10
21495;DHT22;10909;53.590;10.054;2023-06-26T08:19:13;29.50;50.90
21495;DHT22;10909;53.590;10.054;2023-06-26T08:21:43;29.60;51.00
21495;DHT22;10909;53.590;10.054;2023-06-26T08:24:09;29.60;50.90
21495;DHT22;10909;53.590;10.054;2023-06-26T08:26:35;29.70;51.00
21495;DHT22;10909;53.590;10.054;2023-06-26T08:29:01;29.80;50.90
21495;DHT22;10909;53.590;10.054;2023-06-26T08:31:33;29.80;50.70
21495;DHT22;10909;53.590;10.054;2023-06-26T08:34:00;29.90;50.70
21495;DHT22;10909;53.590;10.054;2023-06-26T08:36:28;29.90;50.60
21495;DHT22;10909;53.590;10.054;2023-06-26T08:38:54;30.00;50.30
21495;DHT22;10909;53.590;10.054;2023-06-26T08:41:21;30.10;51.00
21495;DHT22;10909;53.590;10.054;2023-06-26T08:43:47;30.20;50.30
21495;DHT22;10909;53.590;10.054;2023-06-26T08:46:14;30.30;50.00
21495;DHT22;10909;53.590;10.054;2023-06-26T08:48:42;30.40;49.90
21495;DHT22;10909;53.590;10.054;2023-06-26T08:51:12;30.50;49.50
21495;DHT22;10909;53.590;10.054;2023-06-26T08:53:58;30.60;49.30
21495;DHT22;10909;53.590;10.054;2023-06-26T08:56:25;30.70;48.10
21495;DHT22;10909;53.590;10.054;2023-06-26T08:58:53;30.80;48.70
21495;DHT22;10909;53.590;10.054;2023-06-26T09:01:20;30.80;48.30
21495;DHT22;10909;53.590;10.054;2023-06-26T09:03:46;30.80;47.70
21495;DHT22;10909;53.590;10.054;2023-06-26T09:06:12;30.80;47.50
21495;DHT22;10909;53.590;10.054;2023-06-26T09:08:40;30.80;47.10
21495;DHT22;10909;53.590;10.054;2023-06-26T09:11:07;30.80;47.00
21495;DHT22;10909;53.590;10.054;2023-06-26T09:13:33;30.80;47.20
21495;DHT22;10909;53.590;10.054;2023-06-26T09:15:58;30.70;47.30
21495;DHT22;10909;53.590;10.054;2023-06-26T09:18:24;30.70;47.50
21495;DHT22;10909;53.590;10.054;2023-06-26T09:20:50;30.70;47.70
21495;DHT22;10909;53.590;10.054;2023-06-26T09:23:16;30.80;48.00
21495;DHT22;10909;53.590;10.054;2023-06-26T09:25:42;30.80;47.90
21495;DHT22;10909;53.590;10.054;2023-06-26T09:28:11;30.80;48.00
21495;DHT22;10909;53.590;10.054;2023-06-26T09:30:42;30.90;47.90
21495;DHT22;10909;53.590;10.054;2023-06-26T09:33:18;30.90;48.10
21495;DHT22;10909;53.590;10.054;2023-06-26T09:35:46;30.90;48.20
21495;DHT22;10909;53.590;10.054;2023-06-26T09:38:13;31.00;48.30
21495;DHT22;10909;53.590;10.054;2023-06-26T09:40:41;31.00;48.10
21495;DHT22;10909;53.590;10.054;2023-06-26T09:43:12;31.00;47.60
21495;DHT22;10909;53.590;10.054;2023-06-26T09:45:40;30.90;47.60
21495;DHT22;10909;53.590;10.054;2023-06-26T09:48:08;30.80;47.70
21495;DHT22;10909;53.590;10.054;2023-06-26T09:53:09;30.50;59.20
21495;DHT22;10909;53.590;10.054;2023-06-26T09:58:12;30.20;48.10
21495;DHT22;10909;53.590;10.054;2023-06-26T10:00:42;30.10;48.50
21495;DHT22;10909;53.590;10.054;2023-06-26T10:03:09;29.80;49.00
21495;DHT22;10909;53.590;10.054;2023-06-26T10:05:37;29.60;49.40
21495;DHT22;10909;53.590;10.054;2023-06-26T10:08:08;29.50;49.60
21495;DHT22;10909;53.590;10.054;2023-06-26T10:10:36;29.40;50.10
21495;DHT22;10909;53.590;10.054;2023-06-26T10:13:11;29.30;50.30
21495;DHT22;10909;53.590;10.054;2023-06-26T10:15:44;29.20;51.00
21495;DHT22;10909;53.590;10.054;2023-06-26T10:18:11;29.00;50.30
21495;DHT22;10909;53.590;10.054;2023-06-26T10:20:39;28.90;50.50
21495;DHT22;10909;53.590;10.054;2023-06-26T10:23:07;28.80;50.90
21495;DHT22;10909;53.590;10.054;2023-06-26T10:25:37;28.70;51.10
21495;DHT22;10909;53.590;10.054;2023-06-26T10:28:03;28.50;51.50
21495;DHT22;10909;53.590;10.054;2023-06-26T10:30:33;28.30;51.60
21495;DHT22;10909;53.590;10.054;2023-06-26T10:33:01;28.00;53.30
21495;DHT22;10909;53.590;10.054;2023-06-26T10:35:30;27.60;53.20
21495;DHT22;10909;53.590;10.054;2023-06-26T10:38:03;27.10;54.30
21495;DHT22;10909;53.590;10.054;2023-06-26T10:40:46;26.50;55.40
21495;DHT22;10909;53.590;10.054;2023-06-26T10:43:15;25.90;57.70
21495;DHT22;10909;53.590;10.054;2023-06-26T10:48:14;25.00;57.70
21495;DHT22;10909;53.590;10.054;2023-06-26T10:50:40;24.60;59.20
21495;DHT22;10909;53.590;10.054;2023-06-26T10:55:58;24.00;62.30
21495;DHT22;10909;53.590;10.054;2023-06-26T10:58:39;23.80;62.80
21495;DHT22;10909;53.590;10.054;2023-06-26T11:04:05;23.50;63.60
21495;DHT22;10909;53.590;10.054;2023-06-26T11:06:32;23.40;65.50
21495;DHT22;10909;53.590;10.054;2023-06-26T11:14:20;23.30;68.50
21495;DHT22;10909;53.590;10.054;2023-06-26T11:16:47;23.40;66.70
21495;DHT22;10909;53.590;10.054;2023-06-26T11:19:13;23.40;68.20
21495;DHT22;10909;53.590;10.054;2023-06-26T11:21:39;23.50;68.60
21495;DHT22;10909;53.590;10.054;2023-06-26T11:24:09;23.60;68.80
21495;DHT22;10909;53.590;10.054;2023-06-26T11:26:42;23.70;69.20
21495;DHT22;10909;53.590;10.054;2023-06-26T11:29:09;23.80;69.20
21495;DHT22;10909;53.590;10.054;2023-06-26T11:31:39;23.80;68.40
21495;DHT22;10909;53.590;10.054;2023-06-26T11:34:08;23.90;67.80
21495;DHT22;10909;53.590;10.054;2023-06-26T11:36:41;23.80;67.20
21495;DHT22;10909;53.590;10.054;2023-06-26T11:39:08;24.00;67.30
21495;DHT22;10909;53.590;10.054;2023-06-26T11:41:40;24.10;66.90
21495;DHT22;10909;53.590;10.054;2023-06-26T11:44:08;24.10;67.70
21495;DHT22;10909;53.590;10.054;2023-06-26T11:46:35;24.30;67.10
21495;DHT22;10909;53.590;10.054;2023-06-26T11:49:08;24.30;67.70
21495;DHT22;10909;53.590;10.054;2023-06-26T11:51:34;24.40;66.60
21495;DHT22;10909;53.590;10.054;2023-06-26T11:54:02;24.40;67.00
21495;DHT22;10909;53.590;10.054;2023-06-26T11:56:29;24.50;67.00
21495;DHT22;10909;53.590;10.054;2023-06-26T11:59:03;24.60;66.80
21495;DHT22;10909;53.590;10.054;2023-06-26T12:01:36;24.70;66.50
21495;DHT22;10909;53.590;10.054;2023-06-26T12:04:07;24.80;66.50
21495;DHT22;10909;53.590;10.054;2023-06-26T12:06:35;24.90;65.70
21495;DHT22;10909;53.590;10.054;2023-06-26T12:09:07;24.90;64.50
21495;DHT22;10909;53.590;10.054;2023-06-26T12:11:35;25.00;63.20
21495;DHT22;10909;53.590;10.054;2023-06-26T12:14:06;25.00;63.80
21495;DHT22;10909;53.590;10.054;2023-06-26T12:16:33;25.00;63.30
21495;DHT22;10909;53.590;10.054;2023-06-26T12:19:05;25.00;63.80
21495;DHT22;10909;53.590;10.054;2023-06-26T12:24:03;25.10;63.80
21495;DHT22;10909;53.590;10.054;2023-06-26T12:26:29;25.20;65.10
21495;DHT22;10909;53.590;10.054;2023-06-26T12:29:12;25.30;64.90
21495;DHT22;10909;53.590;10.054;2023-06-26T12:31:44;25.50;63.30
21495;DHT22;10909;53.590;10.054;2023-06-26T12:34:14;25.70;64.10
21495;DHT22;10909;53.590;10.054;2023-06-26T12:36:48;25.90;63.60
21495;DHT22;10909;53.590;10.054;2023-06-26T12:39:19;26.20;63.40
21495;DHT22;10909;53.590;10.054;2023-06-26T12:41:46;26.40;63.90
21495;DHT22;10909;53.590;10.054;2023-06-26T12:44:22;26.70;62.50
21495;DHT22;10909;53.590;10.054;2023-06-26T12:46:49;27.00;60.60
21495;DHT22;10909;53.590;10.054;2023-06-26T12:49:15;27.20;59.60
21495;DHT22;10909;53.590;10.054;2023-06-26T12:51:41;27.30;59.40
21495;DHT22;10909;53.590;10.054;2023-06-26T12:54:08;27.50;59.20
21495;DHT22;10909;53.590;10.054;2023-06-26T12:56:33;27.70;58.80
21495;DHT22;10909;53.590;10.054;2023-06-26T12:58:59;27.90;57.50
21495;DHT22;10909;53.590;10.054;2023-06-26T13:01:27;28.10;56.40
21495;DHT22;10909;53.590;10.054;2023-06-26T13:03:55;28.20;55.50
21495;DHT22;10909;53.590;10.054;2023-06-26T13:06:21;28.30;54.80
21495;DHT22;10909;53.590;10.054;2023-06-26T13:08:46;28.40;54.50
21495;DHT22;10909;53.590;10.054;2023-06-26T13:11:12;28.50;53.20
21495;DHT22;10909;53.590;10.054;2023-06-26T13:13:38;28.60;53.30
21495;DHT22;10909;53.590;10.054;2023-06-26T13:16:03;28.60;52.70
21495;DHT22;10909;53.590;10.054;2023-06-26T13:18:30;28.60;51.40
21495;DHT22;10909;53.590;10.054;2023-06-26T13:20:55;28.50;51.50
21495;DHT22;10909;53.590;10.054;2023-06-26T13:23:21;28.50;51.50
21495;DHT22;10909;53.590;10.054;2023-06-26T13:25:47;28.60;52.10
21495;DHT22;10909;53.590;10.054;2023-06-26T13:28:13;28.60;51.00
21495;DHT22;10909;53.590;10.054;2023-06-26T13:30:39;28.70;50.50
21495;DHT22;10909;53.590;10.054;2023-06-26T13:33:06;28.70;50.70
21495;DHT22;10909;53.590;10.054;2023-06-26T13:35:32;28.70;49.80
21495;DHT22;10909;53.590;10.054;2023-06-26T13:37:57;28.70;50.60
21495;DHT22;10909;53.590;10.054;2023-06-26T13:40:23;28.70;50.70
21495;DHT22;10909;53.590;10.054;2023-06-26T13:42:49;28.70;50.50
21495;DHT22;10909;53.590;10.054;2023-06-26T13:45:14;28.80;50.60
21495;DHT22;10909;53.590;10.054;2023-06-26T13:47:40;28.90;50.50
21495;DHT22;10909;53.590;10.054;2023-06-26T13:50:10;28.90;49.40
21495;DHT22;10909;53.590;10.054;2023-06-26T13:52:36;28.90;47.40
21495;DHT22;10909;53.590;10.054;2023-06-26T13:55:02;28.90;49.30
21495;DHT22;10909;53.590;10.054;2023-06-26T13:57:31;28.90;49.80
21495;DHT22;10909;53.590;10.054;2023-06-26T13:59:57;29.00;50.20
21495;DHT22;10909;53.590;10.054;2023-06-26T14:02:23;29.00;49.90
21495;DHT22;10909;53.590;10.054;2023-06-26T14:04:49;29.00;49.50
21495;DHT22;10909;53.590;10.054;2023-06-26T14:07:15;29.00;48.20
21495;DHT22;10909;53.590;10.054;2023-06-26T14:09:41;28.90;47.70
21495;DHT22;10909;53.590;10.054;2023-06-26T14:12:08;28.80;48.30
21495;DHT22;10909;53.590;10.054;2023-06-26T14:14:34;28.80;47.60
21495;DHT22;10909;53.590;10.054;2023-06-26T14:17:00;28.80;48.00
21495;DHT22;10909;53.590;10.054;2023-06-26T14:19:27;28.80;48.20
21495;DHT22;10909;53.590;10.054;2023-06-26T14:21:53;28.90;48.00
21495;DHT22;10909;53.590;10.054;2023-06-26T14:24:19;29.00;48.40
21495;DHT22;10909;53.590;10.054;2023-06-26T14:26:44;29.10;47.70
21495;DHT22;10909;53.590;10.054;2023-06-26T14:29:10;29.10;47.10
21495;DHT22;10909;53.590;10.054;2023-06-26T14:31:36;29.00;46.20
21495;DHT22;10909;53.590;10.054;2023-06-26T14:34:02;28.90;47.70
21495;DHT22;10909;53.590;10.054;2023-06-26T14:36:28;28.80;48.20
21495;DHT22;10909;53.590;10.054;2023-06-26T14:38:56;28.90;49.00
21495;DHT22;10909;53.590;10.054;2023-06-26T14:41:22;29.20;49.30
21495;DHT22;10909;53.590;10.054;2023-06-26T14:43:48;29.40;49.90
21495;DHT22;10909;53.590;10.054;2023-06-26T14:46:15;29.70;48.40
21495;DHT22;10909;53.590;10.054;2023-06-26T14:48:42;29.90;48.00
21495;DHT22;10909;53.590;10.054;2023-06-26T14:51:08;30.00;48.50
21495;DHT22;10909;53.590;10.054;2023-06-26T14:53:33;30.30;48.70
21495;DHT22;10909;53.590;10.054;2023-06-26T14:55:59;30.40;46.60
21495;DHT22;10909;53.590;10.054;2023-06-26T14:58:25;30.60;46.00
21495;DHT22;10909;53.590;10.054;2023-06-26T15:00:50;30.50;44.90
21495;DHT22;10909;53.590;10.054;2023-06-26T15:03:16;30.30;45.30
21495;DHT22;10909;53.590;10.054;2023-06-26T15:05:42;30.20;45.70
21495;DHT22;10909;53.590;10.054;2023-06-26T15:08:08;29.90;44.70
21495;DHT22;10909;53.590;10.054;2023-06-26T15:10:35;29.70;45.70
21495;DHT22;10909;53.590;10.054;2023-06-26T15:13:03;29.50;45.00
21495;DHT22;10909;53.590;10.054;2023-06-26T15:15:28;29.20;45.20
21495;DHT22;10909;53.590;10.054;2023-06-26T15:17:54;29.00;47.30
21495;DHT22;10909;53.590;10.054;2023-06-26T15:20:20;29.00;47.60
21495;DHT22;10909;53.590;10.054;2023-06-26T15:22:45;29.10;48.50
21495;DHT22;10909;53.590;10.054;2023-06-26T15:25:11;29.20;48.30
21495;DHT22;10909;53.590;10.054;2023-06-26T15:27:37;29.30;47.70
21495;DHT22;10909;53.590;10.054;2023-06-26T15:30:03;29.30;44.90
21495;DHT22;10909;53.590;10.054;2023-06-26T15:32:29;29.10;45.50
21495;DHT22;10909;53.590;10.054;2023-06-26T15:34:54;29.00;46.00
21495;DHT22;10909;53.590;10.054;2023-06-26T15:39:46;28.70;44.10
21495;DHT22;10909;53.590;10.054;2023-06-26T15:42:12;28.60;45.90
21495;DHT22;10909;53.590;10.054;2023-06-26T15:44:37;28.40;45.80
21495;DHT22;10909;53.590;10.054;2023-06-26T15:47:03;28.30;45.90